sensor_id;sensor_type;location;lat;lon;timestamp;P1;durP1;ratioP1;P2;durP2;ratioP2
48873;SDS011;66155;46.204;5.220;2023-05-10T00:03:58;1.67;;;1.17;;
48873;SDS011;66155;46.204;5.220;2023-05-10T00:08:58;2.30;;;1.58;;
48873;SDS011;66155;46.204;5.220;2023-05-10T00:13:59;2.95;;;1.98;;
48873;SDS011;66155;46.204;5.220;2023-05-10T00:18:59;2.40;;;1.50;;
48873;SDS011;66155;46.204;5.220;2023-05-10T00:24:00;1.45;;;1.30;;
48873;SDS011;66155;46.204;5.220;2023-05-10T00:29:00;1.50;;;1.40;;
48873;SDS011;66155;46.204;5.220;2023-05-10T00:34:01;1.95;;;1.55;;
48873;SDS011;66155;46.204;5.220;2023-05-10T00:39:01;1.50;;;1.40;;
48873;SDS011;66155;46.204;5.220;2023-05-10T00:44:03;1.83;;;1.40;;
48873;SDS011;66155;46.204;5.220;2023-05-10T00:49:04;1.75;;;1.60;;
48873;SDS011;66155;46.204;5.220;2023-05-10T00:54:04;2.00;;;1.50;;
48873;SDS011;66155;46.204;5.220;2023-05-10T00:59:05;2.22;;;1.40;;
48873;SDS011;66155;46.204;5.220;2023-05-10T01:04:05;3.08;;;1.77;;
48873;SDS011;66155;46.204;5.220;2023-05-10T01:09:06;1.50;;;1.40;;
48873;SDS011;66155;46.204;5.220;2023-05-10T01:14:07;3.35;;;1.33;;
48873;SDS011;66155;46.204;5.220;2023-05-10T01:19:11;2.35;;;1.20;;
48873;SDS011;66155;46.204;5.220;2023-05-10T01:35:22;1.30;;;1.20;;
48873;SDS011;66155;46.204;5.220;2023-05-10T01:40:36;3.45;;;1.42;;
48873;SDS011;66155;46.204;5.220;2023-05-10T01:46:05;3.08;;;1.50;;
48873;SDS011;66155;46.204;5.220;2023-05-10T01:51:12;3.00;;;1.30;;
48873;SDS011;66155;46.204;5.220;2023-05-10T01:56:16;1.33;;;1.30;;
48873;SDS011;66155;46.204;5.220;2023-05-10T02:01:22;4.53;;;1.60;;
48873;SDS011;66155;46.204;5.220;2023-05-10T02:06:26;1.70;;;1.60;;
48873;SDS011;66155;46.204;5.220;2023-05-10T02:11:27;1.50;;;1.35;;
48873;SDS011;66155;46.204;5.220;2023-05-10T02:16:29;2.67;;;1.65;;
48873;SDS011;66155;46.204;5.220;2023-05-10T02:21:30;3.97;;;1.75;;
48873;SDS011;66155;46.204;5.220;2023-05-10T02:26:33;2.42;;;1.48;;
48873;SDS011;66155;46.204;5.220;2023-05-10T02:31:35;4.03;;;1.70;;
48873;SDS011;66155;46.204;5.220;2023-05-10T02:36:39;4.55;;;1.60;;
48873;SDS011;66155;46.204;5.220;2023-05-10T02:41:41;4.38;;;2.20;;
48873;SDS011;66155;46.204;5.220;2023-05-10T02:46:43;2.17;;;1.73;;
48873;SDS011;66155;46.204;5.220;2023-05-10T02:51:44;5.43;;;1.65;;
48873;SDS011;66155;46.204;5.220;2023-05-10T02:56:51;4.45;;;1.55;;
48873;SDS011;66155;46.204;5.220;2023-05-10T03:01:56;3.17;;;1.40;;
48873;SDS011;66155;46.204;5.220;2023-05-10T03:06:56;4.05;;;1.63;;
48873;SDS011;66155;46.204;5.220;2023-05-10T03:12:07;5.13;;;1.83;;
48873;SDS011;66155;46.204;5.220;2023-05-10T03:22:50;5.05;;;2.08;;
48873;SDS011;66155;46.204;5.220;2023-05-10T03:27:55;4.63;;;2.25;;
48873;SDS011;66155;46.204;5.220;2023-05-10T03:32:57;2.53;;;1.95;;
48873;SDS011;66155;46.204;5.220;2023-05-10T03:37:57;2.03;;;1.60;;
48873;SDS011;66155;46.204;5.220;2023-05-10T03:42:58;7.00;;;2.10;;
48873;SDS011;66155;46.204;5.220;2023-05-10T03:47:59;5.57;;;1.80;;
48873;SDS011;66155;46.204;5.220;2023-05-10T03:52:59;4.05;;;2.10;;
48873;SDS011;66155;46.204;5.220;2023-05-10T03:58:00;4.35;;;2.00;;
48873;SDS011;66155;46.204;5.220;2023-05-10T04:03:00;8.00;;;2.28;;
48873;SDS011;66155;46.204;5.220;2023-05-10T04:08:01;4.35;;;2.03;;
48873;SDS011;66155;46.204;5.220;2023-05-10T04:13:01;6.32;;;2.40;;
48873;SDS011;66155;46.204;5.220;2023-05-10T04:18:02;3.65;;;2.33;;
48873;SDS011;66155;46.204;5.220;2023-05-10T04:23:02;8.30;;;2.50;;
48873;SDS011;66155;46.204;5.220;2023-05-10T04:28:03;4.32;;;2.50;;
48873;SDS011;66155;46.204;5.220;2023-05-10T04:33:03;4.70;;;2.80;;
48873;SDS011;66155;46.204;5.220;2023-05-10T04:38:04;7.10;;;2.63;;
48873;SDS011;66155;46.204;5.220;2023-05-10T04:43:04;5.03;;;2.10;;
48873;SDS011;66155;46.204;5.220;2023-05-10T04:48:05;7.03;;;2.50;;
48873;SDS011;66155;46.204;5.220;2023-05-10T04:53:05;8.43;;;3.25;;
48873;SDS011;66155;46.204;5.220;2023-05-10T04:58:06;7.43;;;2.70;;
48873;SDS011;66155;46.204;5.220;2023-05-10T05:03:07;6.50;;;2.50;;
48873;SDS011;66155;46.204;5.220;2023-05-10T05:08:07;7.72;;;2.60;;
48873;SDS011;66155;46.204;5.220;2023-05-10T05:13:08;7.25;;;2.40;;
48873;SDS011;66155;46.204;5.220;2023-05-10T05:18:08;4.57;;;2.13;;
48873;SDS011;66155;46.204;5.220;2023-05-10T05:23:08;6.03;;;2.42;;
48873;SDS011;66155;46.204;5.220;2023-05-10T05:28:09;7.60;;;2.90;;
48873;SDS011;66155;46.204;5.220;2023-05-10T05:33:09;4.20;;;2.30;;
48873;SDS011;66155;46.204;5.220;2023-05-10T05:38:10;3.87;;;2.50;;
48873;SDS011;66155;46.204;5.220;2023-05-10T05:43:10;6.47;;;2.58;;
48873;SDS011;66155;46.204;5.220;2023-05-10T05:48:11;5.72;;;2.65;;
48873;SDS011;66155;46.204;5.220;2023-05-10T05:53:11;5.65;;;2.40;;
48873;SDS011;66155;46.204;5.220;2023-05-10T05:58:12;9.20;;;2.72;;
48873;SDS011;66155;46.204;5.220;2023-05-10T06:03:12;4.88;;;2.22;;
48873;SDS011;66155;46.204;5.220;2023-05-10T06:08:12;6.90;;;1.92;;
48873;SDS011;66155;46.204;5.220;2023-05-10T06:13:13;3.22;;;2.92;;
48873;SDS011;66155;46.204;5.220;2023-05-10T06:18:13;6.00;;;3.40;;
48873;SDS011;66155;46.204;5.220;2023-05-10T06:23:14;7.80;;;2.70;;
48873;SDS011;66155;46.204;5.220;2023-05-10T06:28:14;7.38;;;2.63;;
48873;SDS011;66155;46.204;5.220;2023-05-10T06:33:15;2.65;;;2.33;;
48873;SDS011;66155;46.204;5.220;2023-05-10T06:38:16;6.03;;;2.10;;
48873;SDS011;66155;46.204;5.220;2023-05-10T06:43:16;6.47;;;2.30;;
48873;SDS011;66155;46.204;5.220;2023-05-10T06:48:17;5.32;;;2.20;;
48873;SDS011;66155;46.204;5.220;2023-05-10T06:53:17;7.90;;;2.50;;
48873;SDS011;66155;46.204;5.220;2023-05-10T06:58:19;4.05;;;2.30;;
48873;SDS011;66155;46.204;5.220;2023-05-10T07:03:19;6.33;;;2.77;;
48873;SDS011;66155;46.204;5.220;2023-05-10T07:08:19;5.83;;;2.90;;
48873;SDS011;66155;46.204;5.220;2023-05-10T07:13:20;4.90;;;3.40;;
48873;SDS011;66155;46.204;5.220;2023-05-10T07:18:20;4.82;;;2.50;;
48873;SDS011;66155;46.204;5.220;2023-05-10T07:23:20;7.75;;;2.53;;
48873;SDS011;66155;46.204;5.220;2023-05-10T07:28:21;2.60;;;2.40;;
48873;SDS011;66155;46.204;5.220;2023-05-10T07:33:21;8.98;;;3.28;;
48873;SDS011;66155;46.204;5.220;2023-05-10T07:38:22;9.13;;;3.10;;
48873;SDS011;66155;46.204;5.220;2023-05-10T07:43:22;4.60;;;2.90;;
48873;SDS011;66155;46.204;5.220;2023-05-10T07:48:23;3.40;;;3.20;;
48873;SDS011;66155;46.204;5.220;2023-05-10T07:53:23;7.53;;;3.35;;
48873;SDS011;66155;46.204;5.220;2023-05-10T07:58:24;3.05;;;2.60;;
48873;SDS011;66155;46.204;5.220;2023-05-10T08:03:24;7.82;;;2.88;;
48873;SDS011;66155;46.204;5.220;2023-05-10T08:08:25;4.40;;;2.70;;
48873;SDS011;66155;46.204;5.220;2023-05-10T08:13:25;3.63;;;2.97;;
48873;SDS011;66155;46.204;5.220;2023-05-10T08:18:26;5.80;;;3.00;;
48873;SDS011;66155;46.204;5.220;2023-05-10T08:23:26;5.30;;;2.60;;
48873;SDS011;66155;46.204;5.220;2023-05-10T08:28:27;3.47;;;3.15;;
48873;SDS011;66155;46.204;5.220;2023-05-10T08:33:27;4.00;;;2.70;;
48873;SDS011;66155;46.204;5.220;2023-05-10T08:38:28;6.10;;;3.15;;
48873;SDS011;66155;46.204;5.220;2023-05-10T08:43:29;7.35;;;2.75;;
48873;SDS011;66155;46.204;5.220;2023-05-10T08:48:33;4.03;;;2.80;;
48873;SDS011;66155;46.204;5.220;2023-05-10T08:53:34;6.07;;;2.60;;
48873;SDS011;66155;46.204;5.220;2023-05-10T08:58:37;12.60;;;3.80;;
48873;SDS011;66155;46.204;5.220;2023-05-10T09:03:38;6.15;;;3.17;;
48873;SDS011;66155;46.204;5.220;2023-05-10T09:08:40;3.90;;;2.85;;
48873;SDS011;66155;46.204;5.220;2023-05-10T09:13:42;4.43;;;3.50;;
48873;SDS011;66155;46.204;5.220;2023-05-10T09:18:43;3.08;;;2.70;;
48873;SDS011;66155;46.204;5.220;2023-05-10T09:23:44;6.80;;;2.80;;
48873;SDS011;66155;46.204;5.220;2023-05-10T09:28:52;6.93;;;3.50;;
48873;SDS011;66155;46.204;5.220;2023-05-10T09:33:57;5.05;;;2.83;;
48873;SDS011;66155;46.204;5.220;2023-05-10T09:38:58;4.88;;;2.90;;
48873;SDS011;66155;46.204;5.220;2023-05-10T09:43:59;2.92;;;2.50;;
48873;SDS011;66155;46.204;5.220;2023-05-10T09:48:59;4.78;;;2.70;;
48873;SDS011;66155;46.204;5.220;2023-05-10T09:54:09;6.63;;;2.70;;
48873;SDS011;66155;46.204;5.220;2023-05-10T09:59:14;8.48;;;2.63;;
48873;SDS011;66155;46.204;5.220;2023-05-10T10:04:15;9.32;;;2.95;;
48873;SDS011;66155;46.204;5.220;2023-05-10T10:09:16;10.02;;;3.42;;
48873;SDS011;66155;46.204;5.220;2023-05-10T10:14:18;5.00;;;3.08;;
48873;SDS011;66155;46.204;5.220;2023-05-10T10:19:19;6.80;;;3.13;;
48873;SDS011;66155;46.204;5.220;2023-05-10T10:24:20;7.40;;;3.08;;
48873;SDS011;66155;46.204;5.220;2023-05-10T10:29:25;4.60;;;2.80;;
48873;SDS011;66155;46.204;5.220;2023-05-10T10:34:56;5.07;;;3.22;;
48873;SDS011;66155;46.204;5.220;2023-05-10T10:39:56;5.20;;;2.97;;
48873;SDS011;66155;46.204;5.220;2023-05-10T10:45:12;8.20;;;3.00;;
48873;SDS011;66155;46.204;5.220;2023-05-10T10:55:19;7.70;;;2.92;;
48873;SDS011;66155;46.204;5.220;2023-05-10T11:10:51;4.38;;;3.10;;
48873;SDS011;66155;46.204;5.220;2023-05-10T11:16:10;4.13;;;3.50;;
48873;SDS011;66155;46.204;5.220;2023-05-10T11:21:24;5.85;;;3.67;;
48873;SDS011;66155;46.204;5.220;2023-05-10T11:26:25;3.45;;;2.60;;
48873;SDS011;66155;46.204;5.220;2023-05-10T11:31:30;6.75;;;3.00;;
48873;SDS011;66155;46.204;5.220;2023-05-10T11:36:34;5.80;;;3.03;;
48873;SDS011;66155;46.204;5.220;2023-05-10T11:41:35;7.27;;;3.07;;
48873;SDS011;66155;46.204;5.220;2023-05-10T11:46:36;7.00;;;3.15;;
48873;SDS011;66155;46.204;5.220;2023-05-10T11:51:36;3.33;;;2.80;;
48873;SDS011;66155;46.204;5.220;2023-05-10T11:56:37;4.38;;;2.83;;
48873;SDS011;66155;46.204;5.220;2023-05-10T12:01:39;3.95;;;2.58;;
48873;SDS011;66155;46.204;5.220;2023-05-10T12:06:40;3.38;;;2.90;;
48873;SDS011;66155;46.204;5.220;2023-05-10T12:11:41;4.88;;;3.20;;
48873;SDS011;66155;46.204;5.220;2023-05-10T12:16:42;3.45;;;2.80;;
48873;SDS011;66155;46.204;5.220;2023-05-10T12:21:43;4.32;;;2.78;;
48873;SDS011;66155;46.204;5.220;2023-05-10T12:26:47;2.80;;;2.60;;
48873;SDS011;66155;46.204;5.220;2023-05-10T12:31:50;6.90;;;3.13;;
48873;SDS011;66155;46.204;5.220;2023-05-10T12:36:54;5.22;;;3.05;;
48873;SDS011;66155;46.204;5.220;2023-05-10T12:41:55;4.85;;;3.10;;
48873;SDS011;66155;46.204;5.220;2023-05-10T12:46:56;10.00;;;3.57;;
48873;SDS011;66155;46.204;5.220;2023-05-10T12:51:56;6.65;;;2.97;;
48873;SDS011;66155;46.204;5.220;2023-05-10T12:56:57;4.55;;;4.22;;
48873;SDS011;66155;46.204;5.220;2023-05-10T13:01:57;4.45;;;2.95;;
48873;SDS011;66155;46.204;5.220;2023-05-10T13:06:58;3.15;;;2.95;;
48873;SDS011;66155;46.204;5.220;2023-05-10T13:11:58;7.97;;;3.70;;
48873;SDS011;66155;46.204;5.220;2023-05-10T13:16:59;6.22;;;4.30;;
48873;SDS011;66155;46.204;5.220;2023-05-10T13:22:00;7.38;;;3.40;;
48873;SDS011;66155;46.204;5.220;2023-05-10T13:27:00;4.05;;;2.90;;
48873;SDS011;66155;46.204;5.220;2023-05-10T13:32:00;5.53;;;2.83;;
48873;SDS011;66155;46.204;5.220;2023-05-10T13:37:01;4.63;;;3.67;;
48873;SDS011;66155;46.204;5.220;2023-05-10T13:42:02;3.22;;;2.70;;
48873;SDS011;66155;46.204;5.220;2023-05-10T13:47:03;9.02;;;3.95;;
48873;SDS011;66155;46.204;5.220;2023-05-10T13:52:03;4.93;;;3.60;;
48873;SDS011;66155;46.204;5.220;2023-05-10T13:57:06;4.82;;;3.20;;
48873;SDS011;66155;46.204;5.220;2023-05-10T14:02:07;4.40;;;3.45;;
48873;SDS011;66155;46.204;5.220;2023-05-10T14:07:07;4.40;;;3.20;;
48873;SDS011;66155;46.204;5.220;2023-05-10T14:12:08;5.97;;;3.37;;
48873;SDS011;66155;46.204;5.220;2023-05-10T14:17:08;8.18;;;5.03;;
48873;SDS011;66155;46.204;5.220;2023-05-10T14:22:08;4.73;;;4.20;;
48873;SDS011;66155;46.204;5.220;2023-05-10T14:27:09;3.90;;;3.60;;
48873;SDS011;66155;46.204;5.220;2023-05-10T14:32:09;4.03;;;3.37;;
48873;SDS011;66155;46.204;5.220;2023-05-10T14:37:11;3.95;;;3.45;;
48873;SDS011;66155;46.204;5.220;2023-05-10T14:42:11;3.75;;;3.15;;
48873;SDS011;66155;46.204;5.220;2023-05-10T14:47:12;4.40;;;3.47;;
48873;SDS011;66155;46.204;5.220;2023-05-10T14:52:12;15.87;;;3.73;;
48873;SDS011;66155;46.204;5.220;2023-05-10T14:57:14;5.03;;;3.00;;
48873;SDS011;66155;46.204;5.220;2023-05-10T15:02:14;7.03;;;3.00;;
48873;SDS011;66155;46.204;5.220;2023-05-10T15:07:15;3.85;;;3.42;;
48873;SDS011;66155;46.204;5.220;2023-05-10T15:12:17;3.22;;;2.80;;
48873;SDS011;66155;46.204;5.220;2023-05-10T15:17:18;3.95;;;2.70;;
48873;SDS011;66155;46.204;5.220;2023-05-10T15:22:18;3.63;;;3.30;;
48873;SDS011;66155;46.204;5.220;2023-05-10T15:27:19;4.75;;;4.00;;
48873;SDS011;66155;46.204;5.220;2023-05-10T15:32:19;6.25;;;3.13;;
48873;SDS011;66155;46.204;5.220;2023-05-10T15:37:20;2.72;;;2.45;;
48873;SDS011;66155;46.204;5.220;2023-05-10T15:42:22;4.22;;;3.22;;
48873;SDS011;66155;46.204;5.220;2023-05-10T15:47:23;6.20;;;3.03;;
48873;SDS011;66155;46.204;5.220;2023-05-10T15:52:23;5.45;;;2.53;;
48873;SDS011;66155;46.204;5.220;2023-05-10T15:57:24;4.40;;;3.10;;
48873;SDS011;66155;46.204;5.220;2023-05-10T16:02:24;7.10;;;6.07;;
48873;SDS011;66155;46.204;5.220;2023-05-10T16:07:25;5.10;;;4.28;;
48873;SDS011;66155;46.204;5.220;2023-05-10T16:12:25;6.13;;;3.00;;
48873;SDS011;66155;46.204;5.220;2023-05-10T16:17:25;4.57;;;2.97;;
48873;SDS011;66155;46.204;5.220;2023-05-10T16:22:26;4.87;;;4.37;;
48873;SDS011;66155;46.204;5.220;2023-05-10T16:27:27;3.20;;;2.90;;
48873;SDS011;66155;46.204;5.220;2023-05-10T16:32:29;3.42;;;2.92;;
48873;SDS011;66155;46.204;5.220;2023-05-10T16:37:29;5.03;;;3.60;;
48873;SDS011;66155;46.204;5.220;2023-05-10T16:42:29;3.57;;;3.27;;
48873;SDS011;66155;46.204;5.220;2023-05-10T16:47:30;4.57;;;4.23;;
48873;SDS011;66155;46.204;5.220;2023-05-10T16:52:30;5.53;;;4.00;;
48873;SDS011;66155;46.204;5.220;2023-05-10T16:57:31;6.18;;;4.47;;
48873;SDS011;66155;46.204;5.220;2023-05-10T17:02:32;6.18;;;5.70;;
48873;SDS011;66155;46.204;5.220;2023-05-10T17:07:32;5.57;;;3.07;;
48873;SDS011;66155;46.204;5.220;2023-05-10T17:12:33;4.15;;;3.10;;
48873;SDS011;66155;46.204;5.220;2023-05-10T17:17:33;4.40;;;2.63;;
48873;SDS011;66155;46.204;5.220;2023-05-10T17:22:33;4.43;;;3.30;;
48873;SDS011;66155;46.204;5.220;2023-05-10T17:27:34;7.28;;;3.40;;
48873;SDS011;66155;46.204;5.220;2023-05-10T17:32:34;3.17;;;2.90;;
48873;SDS011;66155;46.204;5.220;2023-05-10T17:37:35;5.40;;;3.83;;
48873;SDS011;66155;46.204;5.220;2023-05-10T17:42:35;6.05;;;3.72;;
48873;SDS011;66155;46.204;5.220;2023-05-10T17:47:36;4.03;;;3.63;;
48873;SDS011;66155;46.204;5.220;2023-05-10T17:52:37;3.20;;;3.00;;
48873;SDS011;66155;46.204;5.220;2023-05-10T17:57:37;5.82;;;3.53;;
48873;SDS011;66155;46.204;5.220;2023-05-10T18:02:38;3.30;;;3.00;;
48873;SDS011;66155;46.204;5.220;2023-05-10T18:07:38;5.55;;;5.15;;
48873;SDS011;66155;46.204;5.220;2023-05-10T18:12:39;5.88;;;4.90;;
48873;SDS011;66155;46.204;5.220;2023-05-10T18:17:39;3.80;;;3.40;;
48873;SDS011;66155;46.204;5.220;2023-05-10T18:22:40;4.00;;;3.53;;
48873;SDS011;66155;46.204;5.220;2023-05-10T18:27:40;3.58;;;3.28;;
48873;SDS011;66155;46.204;5.220;2023-05-10T18:32:41;4.15;;;3.70;;
48873;SDS011;66155;46.204;5.220;2023-05-10T18:37:42;4.28;;;3.83;;
48873;SDS011;66155;46.204;5.220;2023-05-10T18:42:42;4.87;;;3.67;;
48873;SDS011;66155;46.204;5.220;2023-05-10T18:47:43;7.95;;;4.03;;
48873;SDS011;66155;46.204;5.220;2023-05-10T18:52:43;7.27;;;4.30;;
48873;SDS011;66155;46.204;5.220;2023-05-10T18:57:44;6.38;;;3.97;;
48873;SDS011;66155;46.204;5.220;2023-05-10T19:02:44;4.00;;;3.60;;
48873;SDS011;66155;46.204;5.220;2023-05-10T19:07:45;4.93;;;3.85;;
48873;SDS011;66155;46.204;5.220;2023-05-10T19:12:46;4.20;;;3.60;;
48873;SDS011;66155;46.204;5.220;2023-05-10T19:17:46;5.15;;;3.45;;
48873;SDS011;66155;46.204;5.220;2023-05-10T19:22:47;3.70;;;3.40;;
48873;SDS011;66155;46.204;5.220;2023-05-10T19:27:47;3.78;;;3.10;;
48873;SDS011;66155;46.204;5.220;2023-05-10T19:32:49;5.63;;;3.22;;
48873;SDS011;66155;46.204;5.220;2023-05-10T19:37:50;6.72;;;3.60;;
48873;SDS011;66155;46.204;5.220;2023-05-10T19:42:50;5.07;;;3.40;;
48873;SDS011;66155;46.204;5.220;2023-05-10T19:47:51;3.67;;;3.40;;
48873;SDS011;66155;46.204;5.220;2023-05-10T19:52:51;4.35;;;3.20;;
48873;SDS011;66155;46.204;5.220;2023-05-10T19:57:52;3.85;;;3.50;;
48873;SDS011;66155;46.204;5.220;2023-05-10T20:02:52;3.40;;;2.70;;
48873;SDS011;66155;46.204;5.220;2023-05-10T20:07:53;7.35;;;3.33;;
48873;SDS011;66155;46.204;5.220;2023-05-10T20:12:54;4.78;;;3.05;;
48873;SDS011;66155;46.204;5.220;2023-05-10T20:17:54;6.05;;;2.83;;
48873;SDS011;66155;46.204;5.220;2023-05-10T20:22:55;4.47;;;3.20;;
48873;SDS011;66155;46.204;5.220;2023-05-10T20:27:55;4.72;;;3.17;;
48873;SDS011;66155;46.204;5.220;2023-05-10T20:32:55;5.43;;;3.35;;
48873;SDS011;66155;46.204;5.220;2023-05-10T20:37:56;6.45;;;4.75;;
48873;SDS011;66155;46.204;5.220;2023-05-10T20:42:56;4.78;;;3.17;;
48873;SDS011;66155;46.204;5.220;2023-05-10T20:47:57;4.15;;;3.60;;
48873;SDS011;66155;46.204;5.220;2023-05-10T20:52:59;5.53;;;3.30;;
48873;SDS011;66155;46.204;5.220;2023-05-10T20:58:00;6.32;;;3.08;;
48873;SDS011;66155;46.204;5.220;2023-05-10T21:03:00;5.65;;;3.28;;
48873;SDS011;66155;46.204;5.220;2023-05-10T21:08:01;3.20;;;2.90;;
48873;SDS011;66155;46.204;5.220;2023-05-10T21:13:01;4.37;;;2.90;;
48873;SDS011;66155;46.204;5.220;2023-05-10T21:18:02;5.43;;;2.55;;
48873;SDS011;66155;46.204;5.220;2023-05-10T21:23:02;6.15;;;3.00;;
48873;SDS011;66155;46.204;5.220;2023-05-10T21:28:03;6.28;;;3.20;;
48873;SDS011;66155;46.204;5.220;2023-05-10T21:33:04;5.60;;;2.50;;
48873;SDS011;66155;46.204;5.220;2023-05-10T21:38:04;6.83;;;2.87;;
48873;SDS011;66155;46.204;5.220;2023-05-10T21:43:05;5.45;;;3.00;;
48873;SDS011;66155;46.204;5.220;2023-05-10T21:48:05;3.60;;;3.30;;
48873;SDS011;66155;46.204;5.220;2023-05-10T21:53:06;4.70;;;2.97;;
48873;SDS011;66155;46.204;5.220;2023-05-10T21:58:06;5.25;;;3.20;;
48873;SDS011;66155;46.204;5.220;2023-05-10T22:03:06;4.45;;;2.55;;
48873;SDS011;66155;46.204;5.220;2023-05-10T22:08:07;4.80;;;2.47;;
48873;SDS011;66155;46.204;5.220;2023-05-10T22:13:07;4.38;;;2.85;;
48873;SDS011;66155;46.204;5.220;2023-05-10T22:18:08;6.05;;;3.08;;
48873;SDS011;66155;46.204;5.220;2023-05-10T22:23:08;8.20;;;3.58;;
48873;SDS011;66155;46.204;5.220;2023-05-10T22:28:09;5.20;;;3.13;;
48873;SDS011;66155;46.204;5.220;2023-05-10T22:33:09;11.63;;;4.97;;
48873;SDS011;66155;46.204;5.220;2023-05-10T22:38:10;8.50;;;3.90;;
48873;SDS011;66155;46.204;5.220;2023-05-10T22:43:11;8.60;;;3.03;;
48873;SDS011;66155;46.204;5.220;2023-05-10T22:48:12;8.45;;;3.72;;
48873;SDS011;66155;46.204;5.220;2023-05-10T22:53:13;6.60;;;3.33;;
48873;SDS011;66155;46.204;5.220;2023-05-10T22:58:14;7.60;;;3.70;;
48873;SDS011;66155;46.204;5.220;2023-05-10T23:03:14;4.68;;;3.10;;
48873;SDS011;66155;46.204;5.220;2023-05-10T23:08:15;5.93;;;2.90;;
48873;SDS011;66155;46.204;5.220;2023-05-10T23:13:16;8.00;;;3.97;;
48873;SDS011;66155;46.204;5.220;2023-05-10T23:18:17;6.75;;;3.53;;
48873;SDS011;66155;46.204;5.220;2023-05-10T23:23:18;4.22;;;3.38;;
48873;SDS011;66155;46.204;5.220;2023-05-10T23:28:18;5.45;;;3.35;;
48873;SDS011;66155;46.204;5.220;2023-05-10T23:33:19;4.45;;;3.28;;
48873;SDS011;66155;46.204;5.220;2023-05-10T23:38:19;7.90;;;4.00;;
48873;SDS011;66155;46.204;5.220;2023-05-10T23:43:20;6.90;;;3.50;;
48873;SDS011;66155;46.204;5.220;2023-05-10T23:48:21;5.25;;;2.85;;
48873;SDS011;66155;46.204;5.220;2023-05-10T23:53:21;6.10;;;3.20;;
48873;SDS011;66155;46.204;5.220;2023-05-10T23:58:22;6.10;;;3.10;;
